Time;durP1;ratioP1;P1;durP2;ratioP2;P2;SDS_P1;SDS_P2;PMS_P1;PMS_P2;Temp;Humidity;BMP_temperature;BMP_pressure;BME280_temperature;BME280_humidity;BME280_pressure;Samples;Min_cycle;Max_cycle;Signal;HPM_P1;HPM_P2
2023/04/11 00:00:15;;;;;;;30.95;6.70;;;;;;;9.47;100.00;100717.28;5038573;28;20028;-70
2023/04/11 00:02:41;;;;;;;24.13;5.60;;;;;;;9.50;100.00;100722.25;5050391;28;20056;-71
2023/04/11 00:05:07;;;;;;;27.50;6.57;;;;;;;9.47;100.00;100712.69;5053326;28;20021;-70
2023/04/11 00:07:32;;;;;;;26.02;5.45;;;;;;;9.47;100.00;100717.28;5052613;28;20384;-70
2023/04/11 00:09:58;;;;;;;22.55;6.10;;;;;;;9.43;100.00;100706.06;5024160;28;20030;-70
2023/04/11 00:12:23;;;;;;;24.50;5.93;;;;;;;9.38;100.00;100705.94;5033119;28;20036;-70
2023/04/11 00:14:48;;;;;;;30.80;6.68;;;;;;;9.37;100.00;100717.75;5016907;28;20037;-71
2023/04/11 00:17:16;;;;;;;30.02;6.50;;;;;;;9.31;100.00;100714.06;5052790;28;20029;-70
2023/04/11 00:19:44;;;;;;;28.13;6.70;;;;;;;9.31;100.00;100715.94;5071005;28;20111;-71
2023/04/11 00:22:10;;;;;;;26.10;6.53;;;;;;;9.27;100.00;100726.38;5072738;28;20025;-71
2023/04/11 00:24:35;;;;;;;30.15;7.50;;;;;;;9.27;100.00;100725.53;5072813;28;20375;-70
2023/04/11 00:27:01;;;;;;;32.65;6.97;;;;;;;9.18;100.00;100714.19;5073001;28;20036;-70
2023/04/11 00:29:26;;;;;;;28.20;6.25;;;;;;;9.14;100.00;100724.59;5052059;28;20075;-70
2023/04/11 00:31:54;;;;;;;28.83;6.90;;;;;;;9.07;100.00;100715.69;5035597;28;20435;-70
2023/04/11 00:34:20;;;;;;;25.05;5.95;;;;;;;9.09;100.00;100721.72;5051160;28;20115;-70
2023/04/11 00:36:46;;;;;;;32.42;7.38;;;;;;;9.04;100.00;100721.53;5052327;28;20052;-70
2023/04/11 00:39:12;;;;;;;29.08;7.05;;;;;;;9.06;100.00;100730.25;5052383;28;20032;-70
2023/04/11 00:41:37;;;;;;;33.42;6.90;;;;;;;8.97;100.00;100729.69;5030857;28;20128;-70
2023/04/11 00:44:03;;;;;;;30.60;6.70;;;;;;;8.93;100.00;100733.03;5032464;28;20053;-70
2023/04/11 00:46:29;;;;;;;30.63;7.60;;;;;;;8.92;100.00;100731.38;5031218;28;20099;-72
2023/04/11 00:48:54;;;;;;;36.03;7.50;;;;;;;9.01;100.00;100721.97;5031141;28;20506;-69
2023/04/11 00:51:21;;;;;;;30.40;6.65;;;;;;;8.99;100.00;100726.78;5028012;28;20037;-70
2023/04/11 00:53:46;;;;;;;28.58;7.18;;;;;;;8.96;100.00;100727.19;5028523;28;20025;-70
2023/04/11 00:56:15;;;;;;;26.35;6.95;;;;;;;8.97;100.00;100727.00;5031606;28;20477;-69
2023/04/11 00:58:40;;;;;;;29.45;6.90;;;;;;;8.91;100.00;100718.91;5031270;28;20045;-69
2023/04/11 01:01:07;;;;;;;32.33;6.78;;;;;;;8.97;100.00;100728.88;5028745;28;20037;-70
2023/04/11 01:03:40;;;;;;;34.65;6.78;;;;;;;8.96;100.00;100732.59;5031431;28;20044;-69
2023/04/11 01:06:07;;;;;;;38.67;7.10;;;;;;;8.92;100.00;100724.09;5029285;28;20036;-70
2023/04/11 01:08:35;;;;;;;30.65;6.57;;;;;;;8.94;100.00;100723.91;5029763;28;20060;-69
2023/04/11 01:11:04;;;;;;;29.17;6.22;;;;;;;8.86;100.00;100720.41;5018689;28;20085;-69
2023/04/11 07:03:48;;;;;;;18.80;3.33;;;;;;;7.99;100.00;101041.41;5144059;27;20348;-72
2023/04/11 07:06:14;;;;;;;17.83;4.28;;;;;;;8.06;100.00;101037.91;5139691;27;20136;-70
2023/04/11 07:08:39;;;;;;;20.23;3.88;;;;;;;8.13;100.00;101041.44;5127509;28;20023;-72
2023/04/11 07:11:05;;;;;;;17.20;3.85;;;;;;;8.16;100.00;101046.44;5129475;27;20118;-71
2023/04/11 07:13:42;;;;;;;22.10;4.72;;;;;;;8.16;100.00;101052.66;5136161;27;20080;-72
2023/04/11 07:16:08;;;;;;;26.60;4.63;;;;;;;8.19;100.00;101047.91;5127777;28;20390;-70
2023/04/11 07:18:33;;;;;;;18.48;4.22;;;;;;;8.24;100.00;101046.22;5130274;27;20035;-70
2023/04/11 07:20:59;;;;;;;18.85;4.25;;;;;;;8.31;100.00;101054.34;5124032;27;20045;-73
2023/04/11 07:23:24;;;;;;;25.48;5.68;;;;;;;8.39;100.00;101053.31;5127674;28;20035;-70
2023/04/11 07:25:49;;;;;;;20.95;4.75;;;;;;;8.46;100.00;101059.59;5130454;27;20030;-71
2023/04/11 07:28:15;;;;;;;18.73;4.50;;;;;;;8.54;100.00;101058.56;5130347;27;20453;-71
2023/04/11 07:30:41;;;;;;;17.58;4.32;;;;;;;8.60;100.00;101063.13;5149220;27;20050;-74
2023/04/11 07:33:06;;;;;;;22.35;4.63;;;;;;;8.67;100.00;101072.06;5133855;27;20110;-76
2023/04/11 07:35:33;;;;;;;15.10;4.63;;;;;;;8.66;100.00;101076.59;5129636;27;20505;-73
2023/04/11 07:38:00;;;;;;;16.05;4.00;;;;;;;8.59;100.00;101072.25;5130231;27;20196;-70
2023/04/11 07:40:26;;;;;;;14.13;3.40;;;;;;;8.57;100.00;101085.13;5127318;27;20498;-72
2023/04/11 07:42:51;;;;;;;19.92;4.00;;;;;;;8.65;100.00;101087.59;5127136;28;20027;-71
2023/04/11 07:45:16;;;;;;;15.98;3.47;;;;;;;8.73;100.00;101083.91;5136213;27;20107;-70
2023/04/11 07:47:42;;;;;;;18.60;3.40;;;;;;;8.78;100.00;101087.59;5118776;28;20035;-72
2023/04/11 07:50:07;;;;;;;18.65;4.22;;;;;;;8.87;100.00;101085.53;5128387;28;20042;-70
2023/04/11 07:52:32;;;;;;;17.25;3.92;;;;;;;8.90;100.00;101082.44;5130129;27;20034;-71
2023/04/11 07:54:58;;;;;;;18.92;4.57;;;;;;;8.93;100.00;101087.41;5140348;27;20035;-71
2023/04/11 07:57:24;;;;;;;19.48;3.90;;;;;;;8.96;100.00;101084.28;5149417;27;20046;-71
2023/04/11 07:59:49;;;;;;;17.65;3.95;;;;;;;8.98;100.00;101084.94;5115455;27;20031;-69
2023/04/11 08:02:14;;;;;;;16.63;3.45;;;;;;;9.00;100.00;101084.72;5125306;27;20051;-70
2023/04/11 08:04:40;;;;;;;17.67;3.58;;;;;;;9.07;100.00;101095.50;5128580;27;20300;-69
2023/04/11 08:07:05;;;;;;;9.30;2.88;;;;;;;9.11;100.00;101086.78;5129115;27;20128;-70
2023/04/11 08:09:31;;;;;;;15.40;3.63;;;;;;;9.14;100.00;101097.16;5128466;28;20461;-73
2023/04/11 08:11:57;;;;;;;15.50;3.33;;;;;;;9.21;100.00;101099.84;5129490;27;20423;-75
2023/04/11 08:14:22;;;;;;;18.05;3.88;;;;;;;9.34;96.98;101102.50;5118821;27;20055;-71
2023/04/11 08:16:48;;;;;;;12.00;2.83;;;;;;;9.40;92.31;101109.81;5130236;27;20100;-71
2023/04/11 08:19:13;;;;;;;16.95;3.38;;;;;;;9.31;94.55;101107.53;5122378;27;20024;-72
2023/04/11 08:21:40;;;;;;;13.77;3.28;;;;;;;9.34;100.00;101110.63;5114379;28;20380;-73
2023/04/11 08:24:05;;;;;;;14.63;2.75;;;;;;;9.36;89.74;101116.66;5118395;27;20023;-74
2023/04/11 08:26:31;;;;;;;13.70;2.60;;;;;;;9.39;85.41;101120.78;5130559;27;20104;-74
2023/04/11 08:28:56;;;;;;;14.80;2.92;;;;;;;9.37;91.55;101129.09;5113869;28;20375;-75
2023/04/11 08:31:21;;;;;;;14.77;3.03;;;;;;;9.35;81.39;101124.97;5115922;28;20111;-73
2023/04/11 08:33:47;;;;;;;11.30;2.67;;;;;;;9.39;82.11;101126.19;5115404;28;20030;-72
2023/04/11 08:36:12;;;;;;;16.92;2.75;;;;;;;9.48;84.95;101134.91;5114099;28;20110;-72
2023/04/11 08:38:38;;;;;;;12.20;2.80;;;;;;;9.56;82.42;101132.00;5115507;27;20024;-70
2023/04/11 08:41:04;;;;;;;7.43;2.13;;;;;;;9.60;81.03;101137.78;5122770;27;20065;-71
2023/04/11 08:43:37;;;;;;;10.30;2.78;;;;;;;9.58;82.44;101135.31;5113271;28;20031;-72
2023/04/11 08:46:03;;;;;;;15.20;2.95;;;;;;;9.58;80.20;101146.94;5114478;28;20541;-72
2023/04/11 08:48:29;;;;;;;14.77;3.40;;;;;;;9.60;79.99;101138.63;5128674;27;20114;-73
2023/04/11 08:50:54;;;;;;;10.93;2.72;;;;;;;9.64;80.60;101147.97;5113873;27;20055;-72
2023/04/11 08:53:23;;;;;;;9.93;2.20;;;;;;;9.61;70.80;101140.28;5115279;28;20035;-71
2023/04/11 08:55:48;;;;;;;17.30;3.17;;;;;;;9.55;79.83;101133.84;5112140;28;20073;-73
2023/04/11 08:58:14;;;;;;;12.27;2.92;;;;;;;9.60;77.18;101141.31;5114942;28;20028;-71
2023/04/11 09:00:39;;;;;;;15.73;2.50;;;;;;;9.70;76.55;101143.59;5110169;28;20647;-72
2023/04/11 09:03:07;;;;;;;16.50;2.80;;;;;;;9.61;76.89;101143.00;5114890;27;20059;-73
2023/04/11 09:05:32;;;;;;;12.02;2.85;;;;;;;9.56;76.72;101142.81;5112872;28;20418;-71
2023/04/11 09:08:03;;;;;;;12.30;2.85;;;;;;;9.56;77.24;101134.69;5113503;28;20210;-73
2023/04/11 09:10:28;;;;;;;14.40;3.10;;;;;;;9.59;80.28;101136.97;5115805;27;20035;-73
2023/04/11 09:12:54;;;;;;;13.32;2.72;;;;;;;9.63;82.67;101138.22;5130598;27;20042;-71
2023/04/11 09:15:26;;;;;;;15.27;3.33;;;;;;;9.76;80.98;101143.56;5135156;27;20052;-72
2023/04/11 09:17:52;;;;;;;14.85;2.42;;;;;;;9.81;75.37;101144.81;5135253;27;20035;-71
2023/04/11 09:20:28;;;;;;;16.48;2.72;;;;;;;9.89;75.61;101147.28;5135581;27;20046;-73
2023/04/11 09:22:55;;;;;;;9.95;2.40;;;;;;;9.98;74.79;101143.31;5134714;27;20027;-72
2023/04/11 09:25:21;;;;;;;12.38;2.65;;;;;;;10.04;72.70;101145.16;5127833;27;20032;-73
2023/04/11 09:27:48;;;;;;;12.00;2.70;;;;;;;10.10;70.57;101144.28;5128001;27;20038;-74
2023/04/11 09:30:24;;;;;;;9.90;2.30;;;;;;;10.16;71.93;101150.72;5134826;27;20472;-73
2023/04/11 09:32:54;;;;;;;12.75;3.15;;;;;;;10.31;71.78;101152.31;5135065;27;20030;-72
2023/04/11 09:35:23;;;;;;;13.20;3.00;;;;;;;10.26;71.92;101147.53;5135012;27;20030;-72
2023/04/11 09:37:53;;;;;;;11.93;2.38;;;;;;;10.27;69.02;101154.63;5133695;27;20176;-72
2023/04/11 09:40:22;;;;;;;12.15;3.10;;;;;;;10.19;67.73;101157.56;5131248;27;20126;-72
2023/04/11 09:42:48;;;;;;;12.73;3.00;;;;;;;10.21;68.17;101148.19;5122936;27;20046;-73
2023/04/11 09:45:17;;;;;;;13.95;2.88;;;;;;;10.33;68.59;101159.19;5133251;27;20023;-71
2023/04/11 09:47:44;;;;;;;10.15;2.33;;;;;;;10.39;65.23;101160.22;5134787;27;20180;-72
2023/04/11 09:50:10;;;;;;;9.65;2.35;;;;;;;10.52;66.40;101152.00;5134516;27;20035;-73
2023/04/11 09:52:36;;;;;;;15.35;3.10;;;;;;;10.60;65.98;101153.66;5133294;27;20027;-72
2023/04/11 09:55:03;;;;;;;12.93;2.47;;;;;;;10.69;63.37;101162.31;5133022;27;20033;-70
2023/04/11 09:57:30;;;;;;;10.00;2.22;;;;;;;10.63;61.93;101154.03;5120266;27;20062;-71
2023/04/11 09:59:57;;;;;;;12.65;3.10;;;;;;;10.57;58.93;101156.78;5112464;28;20444;-73
2023/04/11 10:02:22;;;;;;;14.25;2.80;;;;;;;10.55;60.19;101166.97;5126000;27;20050;-71
2023/04/11 10:04:48;;;;;;;14.23;2.95;;;;;;;10.52;61.34;101162.81;5134361;27;20118;-72
2023/04/11 10:07:15;;;;;;;15.90;2.70;;;;;;;10.67;62.90;101173.34;5134257;27;20526;-71
2023/04/11 10:09:42;;;;;;;11.20;3.08;;;;;;;10.72;60.96;101168.13;5134381;27;20023;-72
2023/04/11 10:12:08;;;;;;;7.05;2.20;;;;;;;10.81;60.36;101171.41;5119907;27;20036;-71
2023/04/11 10:14:36;;;;;;;10.35;2.30;;;;;;;10.85;59.11;101156.38;5113498;28;20073;-71
2023/04/11 10:17:23;;;;;;;10.65;2.15;;;;;;;10.94;60.39;101159.66;5113100;28;20031;-71
2023/04/11 10:19:52;;;;;;;9.48;2.30;;;;;;;11.06;57.61;101149.75;5133911;27;20023;-72
2023/04/11 10:22:40;;;;;;;10.10;2.30;;;;;;;11.18;57.81;101160.72;5133593;27;20023;-71
2023/04/11 10:25:18;;;;;;;9.40;2.45;;;;;;;11.16;55.67;101157.41;5133646;27;20027;-71
2023/04/11 10:27:48;;;;;;;7.97;2.40;;;;;;;11.18;56.01;101150.69;5118593;27;20031;-73
2023/04/11 10:30:14;;;;;;;10.20;2.38;;;;;;;11.24;55.99;101154.41;5110530;27;20110;-72
2023/04/11 10:32:44;;;;;;;6.82;2.28;;;;;;;11.28;54.05;101154.81;5131757;27;20114;-72
2023/04/11 10:35:15;;;;;;;8.60;2.33;;;;;;;11.32;55.80;101156.00;5132366;27;20466;-73
2023/04/11 10:37:40;;;;;;;8.85;2.10;;;;;;;11.40;54.70;101147.59;5133398;27;20026;-73
2023/04/11 10:40:09;;;;;;;10.15;2.30;;;;;;;11.47;56.79;101164.63;5123738;27;20056;-73
2023/04/11 10:42:37;;;;;;;8.35;2.28;;;;;;;11.52;54.00;101159.34;5112079;28;20028;-71
2023/04/11 10:45:39;;;;;;;7.47;1.92;;;;;;;11.57;54.42;101152.44;5111987;28;20131;-73
2023/04/11 10:48:06;;;;;;;7.38;1.95;;;;;;;11.57;52.26;101157.88;5033328;28;20445;-70
2023/04/11 10:50:36;;;;;;;7.20;1.98;;;;;;;11.52;50.88;101156.66;5084531;28;20032;-71
2023/04/11 10:53:03;;;;;;;6.57;1.63;;;;;;;11.50;49.89;101149.78;5092585;28;20032;-72
2023/04/11 10:55:41;;;;;;;7.57;1.88;;;;;;;11.57;51.61;101163.28;5092642;28;20040;-72
2023/04/11 10:58:21;;;;;;;11.32;2.47;;;;;;;11.57;51.53;101163.28;5106999;28;20028;-73
2023/04/11 11:00:49;;;;;;;10.75;2.20;;;;;;;11.59;51.52;101158.47;5109141;28;20081;-71
2023/04/11 11:03:23;;;;;;;8.95;2.35;;;;;;;11.59;51.60;101162.00;5111094;28;20469;-73
2023/04/11 11:05:59;;;;;;;13.20;2.42;;;;;;;11.68;53.07;101162.53;5115309;28;20470;-75
2023/04/11 11:08:40;;;;;;;9.88;2.28;;;;;;;11.76;52.62;101164.97;5133542;27;20038;-75
2023/04/11 11:11:07;;;;;;;10.60;2.45;;;;;;;11.87;53.09;101168.81;5112265;28;20063;-75
2023/04/11 11:13:46;;;;;;;8.73;2.28;;;;;;;11.86;50.17;101161.72;5109095;28;20463;-82
2023/04/11 11:16:22;;;;;;;10.02;2.50;;;;;;;11.86;50.46;101167.97;5111028;28;20118;-76
2023/04/11 11:18:53;;;;;;;8.23;2.30;;;;;;;11.85;50.01;101158.19;5111640;28;20085;-76
2023/04/11 11:21:23;;;;;;;4.75;1.60;;;;;;;11.98;50.49;101176.19;5111352;28;20038;-74
2023/04/11 11:23:56;;;;;;;7.18;1.95;;;;;;;11.94;48.88;101158.75;5111560;28;20035;-74
2023/04/11 11:26:21;;;;;;;8.82;2.15;;;;;;;11.93;49.08;101175.25;5111566;28;20417;-76
2023/04/11 11:28:47;;;;;;;5.80;1.73;;;;;;;11.83;45.08;101178.44;5107766;28;20020;-73
2023/04/11 11:31:13;;;;;;;6.18;1.83;;;;;;;11.83;47.00;101162.97;5114829;28;20065;-73
2023/04/11 11:33:40;;;;;;;8.00;2.17;;;;;;;12.03;49.87;101170.09;5117039;28;20050;-74
2023/04/11 11:36:07;;;;;;;8.23;2.03;;;;;;;11.91;45.76;101177.31;5114275;27;20039;-74
2023/04/11 11:38:43;;;;;;;4.65;1.38;;;;;;;11.81;46.17;101175.94;5108860;28;20031;-73
2023/04/11 11:41:09;;;;;;;8.10;2.00;;;;;;;11.80;46.47;101168.03;5111087;28;20023;-71
2023/04/11 11:43:35;;;;;;;5.32;2.10;;;;;;;11.80;46.25;101178.88;5111271;28;20023;-72
2023/04/11 11:46:13;;;;;;;15.45;2.50;;;;;;;11.79;47.59;101180.78;5111312;28;20023;-73
2023/04/11 11:48:42;;;;;;;7.43;2.03;;;;;;;11.85;47.71;101174.44;5111568;28;20035;-71
2023/04/11 11:51:07;;;;;;;9.25;2.05;;;;;;;11.97;45.00;101180.00;5123094;27;20131;-73
2023/04/11 11:53:32;;;;;;;6.70;2.00;;;;;;;12.07;44.70;101176.72;5124134;27;20102;-72
2023/04/11 11:55:58;;;;;;;7.28;1.75;;;;;;;12.22;43.64;101187.19;5116579;28;20027;-70
2023/04/11 11:58:24;;;;;;;5.15;1.73;;;;;;;12.36;44.49;101179.72;5112078;28;20024;-72
2023/04/11 12:00:53;;;;;;;7.28;2.03;;;;;;;12.48;44.97;101186.00;5113756;28;20114;-78
2023/04/11 12:03:28;;;;;;;9.15;2.33;;;;;;;12.47;44.53;101187.09;5112519;28;20537;-76
2023/04/11 12:05:55;;;;;;;7.20;1.95;;;;;;;12.49;44.08;101179.53;5116938;27;20058;-72
2023/04/11 12:08:23;;;;;;;8.20;1.80;;;;;;;12.61;44.12;101195.06;5111778;27;20055;-71
2023/04/11 12:10:50;;;;;;;7.32;2.10;;;;;;;12.64;43.46;101194.59;5102295;28;20382;-72
2023/04/11 12:13:21;;;;;;;7.25;1.95;;;;;;;12.48;41.33;101186.00;5115841;28;20041;-71
2023/04/11 12:15:52;;;;;;;7.90;1.80;;;;;;;12.35;40.42;101188.91;5115721;27;20054;-72
2023/04/11 12:18:30;;;;;;;7.88;1.90;;;;;;;12.32;42.41;101192.06;5099333;28;20044;-78
2023/04/11 12:20:57;;;;;;;6.68;1.80;;;;;;;12.30;40.83;101180.63;5113205;28;20031;-71
2023/04/11 12:23:22;;;;;;;7.22;2.00;;;;;;;12.25;41.94;101175.06;5113948;28;20625;-71
2023/04/11 12:25:51;;;;;;;6.40;1.70;;;;;;;12.26;42.51;101179.41;5112853;28;20027;-81
2023/04/11 12:28:21;;;;;;;5.95;1.85;;;;;;;12.41;41.78;101175.25;5115525;28;20128;-74
2023/04/11 12:30:47;;;;;;;7.50;1.95;;;;;;;12.49;42.03;101178.72;5114291;28;20118;-74
2023/04/11 12:33:12;;;;;;;7.85;2.17;;;;;;;12.38;42.72;101172.19;5115188;28;20063;-71
2023/04/11 12:35:37;;;;;;;7.93;2.00;;;;;;;12.42;41.52;101173.38;5115145;27;20085;-73
2023/04/11 12:38:03;;;;;;;6.65;1.67;;;;;;;12.47;41.69;101180.81;5115140;28;20028;-72
2023/04/11 12:40:28;;;;;;;8.00;1.90;;;;;;;12.59;38.70;101179.81;5114700;28;20498;-72
2023/04/11 12:42:54;;;;;;;6.20;1.50;;;;;;;12.75;40.17;101174.78;5113373;28;20083;-73
2023/04/11 12:45:19;;;;;;;3.67;1.42;;;;;;;12.99;41.90;101174.84;5116874;27;20061;-72
2023/04/11 12:47:44;;;;;;;5.72;1.73;;;;;;;12.99;39.43;101169.44;5135736;27;20035;-73
2023/04/11 12:50:10;;;;;;;5.22;1.75;;;;;;;13.02;40.40;101171.69;5134051;27;20034;-73
2023/04/11 12:52:36;;;;;;;9.38;1.70;;;;;;;13.21;40.55;101177.84;5111837;27;20482;-72
2023/04/11 12:55:03;;;;;;;7.53;1.75;;;;;;;13.23;39.33;101168.38;5114722;28;20043;-73
2023/04/11 12:57:28;;;;;;;5.65;1.92;;;;;;;13.29;38.83;101166.63;5113251;28;20485;-72
2023/04/11 12:59:53;;;;;;;6.15;1.42;;;;;;;13.28;38.46;101167.69;5114404;28;20055;-72
2023/04/11 13:02:19;;;;;;;5.03;1.70;;;;;;;13.46;40.26;101169.50;5110516;28;20513;-72
2023/04/11 13:04:52;;;;;;;7.55;1.90;;;;;;;13.40;39.34;101165.81;5114995;28;20092;-72
2023/04/11 13:07:17;;;;;;;7.35;1.92;;;;;;;13.39;40.61;101172.34;5115264;27;20382;-72
2023/04/11 13:09:43;;;;;;;6.47;1.90;;;;;;;13.37;41.31;101179.88;5111513;27;20031;-73
2023/04/11 13:12:08;;;;;;;7.72;1.85;;;;;;;13.20;40.83;101177.00;5122929;27;20035;-73
2023/04/11 13:14:35;;;;;;;8.18;1.90;;;;;;;13.22;40.25;101193.09;5114281;28;20531;-72
2023/04/11 13:17:00;;;;;;;5.68;1.75;;;;;;;13.37;41.30;101176.34;5130120;27;20031;-73
2023/04/11 13:19:26;;;;;;;5.68;2.03;;;;;;;13.58;41.30;101170.31;5113635;28;20076;-73
2023/04/11 13:21:51;;;;;;;6.13;2.00;;;;;;;13.59;41.08;101171.97;5114429;27;20031;-73
2023/04/11 13:24:17;;;;;;;8.13;1.90;;;;;;;13.74;42.63;101168.78;5112449;27;20043;-73
2023/04/11 13:26:43;;;;;;;8.32;2.70;;;;;;;13.95;43.41;101167.31;5114044;28;20028;-73
2023/04/11 13:29:09;;;;;;;7.45;2.30;;;;;;;13.97;41.95;101164.38;5113485;28;20047;-73
2023/04/11 13:31:35;;;;;;;7.55;2.05;;;;;;;14.06;42.88;101165.63;5112659;28;20024;-70
2023/04/11 13:34:07;;;;;;;8.82;2.05;;;;;;;14.10;42.62;101160.53;5115435;27;20034;-72
2023/04/11 13:36:45;;;;;;;6.40;2.10;;;;;;;14.09;42.12;101156.19;5111206;28;20034;-74
2023/04/11 13:39:23;;;;;;;7.28;2.10;;;;;;;14.17;41.91;101159.31;5109568;27;20035;-75
2023/04/11 13:42:07;;;;;;;4.75;1.70;;;;;;;13.87;39.95;101153.25;5112293;27;20024;-75
2023/04/11 13:44:33;;;;;;;6.70;2.00;;;;;;;13.99;41.21;101152.19;5107831;28;20390;-74
2023/04/11 13:46:58;;;;;;;6.38;2.10;;;;;;;13.88;40.60;101149.50;5112611;28;20024;-73
2023/04/11 13:49:23;;;;;;;7.72;2.35;;;;;;;13.98;42.15;101149.69;5111061;28;20463;-72
2023/04/11 13:51:49;;;;;;;6.85;1.85;;;;;;;13.91;41.29;101154.44;5112419;28;20024;-75
2023/04/11 13:54:14;;;;;;;5.22;1.73;;;;;;;13.86;40.65;101140.72;5114164;27;20513;-74
2023/04/11 13:56:53;;;;;;;9.02;2.40;;;;;;;13.87;40.74;101136.94;5113250;28;20097;-77
2023/04/11 13:59:20;;;;;;;8.88;2.00;;;;;;;13.96;41.11;101132.78;5110758;27;20109;-72
2023/04/11 14:01:45;;;;;;;9.50;2.15;;;;;;;13.98;41.98;101138.81;5112081;27;20075;-74
2023/04/11 14:04:10;;;;;;;11.75;2.63;;;;;;;14.17;42.36;101125.84;5112120;28;20031;-73
2023/04/11 14:06:38;;;;;;;8.75;2.30;;;;;;;14.34;42.35;101143.06;5112570;28;20019;-72
2023/04/11 14:09:04;;;;;;;6.97;2.20;;;;;;;14.43;42.08;101127.19;5113800;28;20038;-72
2023/04/11 14:11:30;;;;;;;12.23;2.50;;;;;;;14.38;41.50;101128.97;5126684;27;20126;-72
2023/04/11 14:13:55;;;;;;;10.00;2.10;;;;;;;14.13;41.47;101124.66;5134215;27;20065;-73
2023/04/11 14:16:20;;;;;;;8.48;2.50;;;;;;;13.91;41.22;101128.06;5114129;27;20055;-72
2023/04/11 14:18:46;;;;;;;6.88;2.20;;;;;;;13.98;41.23;101120.59;5112756;28;20023;-74
2023/04/11 14:21:11;;;;;;;7.85;1.92;;;;;;;14.02;41.48;101107.31;5111946;28;20031;-73
2023/04/11 14:23:37;;;;;;;5.10;2.00;;;;;;;14.20;42.62;101111.75;5112200;28;20077;-72
2023/04/11 14:26:02;;;;;;;11.68;2.17;;;;;;;14.52;41.57;101103.06;5112136;28;20046;-72
2023/04/11 14:28:28;;;;;;;6.95;2.33;;;;;;;14.78;41.75;101103.53;5113312;28;20066;-73
2023/04/11 14:30:55;;;;;;;6.82;2.13;;;;;;;14.90;40.50;101104.31;5112150;28;20051;-78
2023/04/11 14:33:20;;;;;;;9.15;2.40;;;;;;;15.04;40.49;101096.63;5128048;27;20151;-71
2023/04/11 14:35:46;;;;;;;8.35;2.22;;;;;;;14.69;40.45;101101.25;5111339;28;20039;-73
2023/04/11 14:38:13;;;;;;;8.73;2.22;;;;;;;14.41;40.07;101104.78;5111928;28;20122;-70
2023/04/11 14:40:39;;;;;;;4.45;2.00;;;;;;;14.77;41.10;101101.91;5113357;28;20031;-77
2023/04/11 14:43:05;;;;;;;8.40;2.17;;;;;;;15.17;39.60;101095.44;5111964;28;20023;-76
2023/04/11 14:45:30;;;;;;;9.27;2.42;;;;;;;15.66;39.39;101092.88;5110116;27;20107;-73
2023/04/11 14:47:55;;;;;;;10.30;2.17;;;;;;;16.19;39.18;101089.69;5110113;28;20038;-73
2023/04/11 14:50:21;;;;;;;8.68;2.28;;;;;;;16.67;37.92;101085.25;5112720;28;20027;-72
2023/04/11 14:52:47;;;;;;;9.05;2.20;;;;;;;16.63;36.52;101089.56;5112763;28;20103;-71
2023/04/11 14:55:12;;;;;;;6.57;2.30;;;;;;;16.74;37.60;101085.84;5113050;28;20023;-73
2023/04/11 14:57:50;;;;;;;8.10;2.45;;;;;;;16.77;37.13;101085.31;5112349;28;20027;-72
2023/04/11 15:00:23;;;;;;;8.88;2.50;;;;;;;16.60;37.38;101087.34;5113016;28;20531;-75
2023/04/11 15:02:53;;;;;;;7.45;2.30;;;;;;;16.56;37.34;101084.31;5105361;28;20050;-73
2023/04/11 15:05:20;;;;;;;11.57;2.57;;;;;;;16.70;37.97;101079.25;5108610;28;20779;-72
2023/04/11 15:07:47;;;;;;;9.77;2.40;;;;;;;16.83;37.23;101078.81;5117320;28;20106;-72
2023/04/11 15:10:14;;;;;;;10.70;2.53;;;;;;;16.36;37.43;101079.47;5111671;28;20068;-72
2023/04/11 15:12:39;;;;;;;11.55;2.83;;;;;;;16.13;38.54;101072.44;5109570;28;20097;-73
2023/04/11 15:15:07;;;;;;;8.55;2.67;;;;;;;16.09;38.10;101079.47;5112260;28;20463;-71
2023/04/11 15:17:44;;;;;;;10.60;3.15;;;;;;;15.94;38.33;101063.75;5096046;28;20456;-72
2023/04/11 15:20:23;;;;;;;10.63;2.97;;;;;;;15.40;40.06;101080.81;5102490;28;20089;-73
2023/04/11 15:22:49;;;;;;;6.43;2.15;;;;;;;15.10;40.15;101070.25;5117637;27;20120;-72
2023/04/11 15:25:15;;;;;;;8.15;2.85;;;;;;;14.80;41.05;101063.28;5114229;28;20028;-70
2023/04/11 15:27:43;;;;;;;7.95;2.50;;;;;;;14.56;42.46;101063.41;5115354;27;20072;-73
2023/04/11 15:30:12;;;;;;;11.05;2.50;;;;;;;14.32;42.39;101068.16;5114372;27;20023;-71
2023/04/11 15:32:42;;;;;;;9.23;2.50;;;;;;;14.31;43.47;101064.63;5135617;27;20015;-72
2023/04/11 15:35:08;;;;;;;8.27;2.30;;;;;;;14.19;43.46;101069.25;5137149;27;20031;-72
2023/04/11 15:37:34;;;;;;;8.88;2.50;;;;;;;14.05;43.14;101067.94;5124356;27;20027;-71
2023/04/11 15:39:59;;;;;;;7.57;2.28;;;;;;;14.08;44.34;101062.00;5131326;27;20440;-71
2023/04/11 15:42:25;;;;;;;8.85;2.38;;;;;;;14.23;44.26;101056.84;5124412;27;20028;-74
2023/04/11 15:44:50;;;;;;;10.60;2.38;;;;;;;14.49;44.31;101051.84;5120235;27;20040;-72
2023/04/11 15:47:15;;;;;;;8.30;2.33;;;;;;;14.65;43.02;101055.69;5126569;27;20110;-73
2023/04/11 15:49:41;;;;;;;8.45;4.05;;;;;;;14.49;42.62;101043.66;5112734;27;20118;-73
2023/04/11 15:52:06;;;;;;;13.05;3.35;;;;;;;14.23;43.94;101047.84;5111553;27;20036;-73
2023/04/11 15:54:32;;;;;;;9.10;2.95;;;;;;;14.09;45.14;101044.59;5115253;27;20028;-72
2023/04/11 15:56:57;;;;;;;14.02;2.70;;;;;;;13.99;45.34;101043.34;5121986;27;20047;-72
2023/04/11 15:59:23;;;;;;;10.75;2.80;;;;;;;13.95;44.43;101039.47;5110458;27;20028;-72
2023/04/11 16:01:50;;;;;;;13.63;3.13;;;;;;;13.96;45.63;101038.38;5109847;27;20048;-70
2023/04/11 16:04:18;;;;;;;13.43;2.60;;;;;;;13.95;45.06;101042.19;5109987;27;20551;-71
2023/04/11 16:06:43;;;;;;;11.52;2.50;;;;;;;13.89;44.85;101036.88;5117137;27;20356;-69
2023/04/11 16:09:09;;;;;;;10.30;2.40;;;;;;;13.72;46.18;101028.66;5108750;27;20089;-71
2023/04/11 16:11:37;;;;;;;8.75;2.30;;;;;;;13.78;46.01;101024.97;5116001;27;20038;-70
2023/04/11 16:14:02;;;;;;;9.85;2.55;;;;;;;13.81;45.55;101025.31;5106039;27;20503;-70
2023/04/11 16:16:28;;;;;;;10.57;2.22;;;;;;;14.05;45.95;101018.94;5113791;27;20024;-71
2023/04/11 16:18:53;;;;;;;10.45;2.53;;;;;;;14.17;45.82;101017.81;5106934;27;20464;-69
2023/04/11 16:21:18;;;;;;;9.15;2.17;;;;;;;14.13;44.43;101000.34;5111724;27;20066;-71
2023/04/11 16:23:44;;;;;;;8.65;2.33;;;;;;;14.04;44.92;101006.41;5133030;27;20035;-77
2023/04/11 16:26:10;;;;;;;9.75;2.47;;;;;;;13.88;45.06;101002.59;5109310;27;20030;-72
2023/04/11 16:28:35;;;;;;;10.30;2.53;;;;;;;13.78;45.47;101004.06;5115294;27;20031;-72
2023/04/11 16:31:00;;;;;;;11.10;2.35;;;;;;;13.62;45.72;101008.34;5116949;27;20046;-70
2023/04/11 16:33:25;;;;;;;7.65;2.30;;;;;;;13.54;45.84;101006.03;5112474;27;20382;-70
2023/04/11 16:35:51;;;;;;;10.50;2.63;;;;;;;13.47;46.74;101008.88;5127883;27;20102;-71
2023/04/11 16:38:17;;;;;;;11.93;2.47;;;;;;;13.45;46.85;101002.00;5134750;27;20055;-71
2023/04/11 16:40:42;;;;;;;9.00;2.60;;;;;;;13.42;47.08;100999.78;5111677;27;20043;-70
2023/04/11 16:43:08;;;;;;;7.72;2.33;;;;;;;13.40;47.37;100991.03;5103421;28;20474;-72
2023/04/11 16:45:33;;;;;;;10.82;2.55;;;;;;;13.38;47.71;100988.56;5096318;28;20064;-69
2023/04/11 16:47:58;;;;;;;10.85;2.70;;;;;;;13.36;48.06;100989.84;5095050;28;20143;-70
2023/04/11 16:50:24;;;;;;;11.25;2.50;;;;;;;13.33;47.58;100984.88;5110389;28;20039;-72
2023/04/11 16:52:50;;;;;;;10.55;2.40;;;;;;;13.26;49.93;100980.41;5095506;27;20043;-71
2023/04/11 16:55:16;;;;;;;10.32;2.60;;;;;;;13.27;48.79;100976.63;5119686;27;20019;-72
2023/04/11 16:57:42;;;;;;;9.75;2.40;;;;;;;13.23;49.06;100983.59;5130690;27;20114;-73
2023/04/11 17:03:03;;;;;;;11.65;2.60;;;;;;;13.20;49.37;100975.13;5129649;27;20035;-75
2023/04/11 17:05:31;;;;;;;10.68;2.40;;;;;;;13.15;49.32;100983.97;5132682;27;20068;-77
2023/04/11 17:07:56;;;;;;;9.52;2.60;;;;;;;13.10;49.45;100979.28;5133643;27;20572;-75
2023/04/11 17:10:22;;;;;;;10.88;2.13;;;;;;;13.08;48.92;100965.06;5134637;27;20019;-76
2023/04/11 17:12:47;;;;;;;10.15;2.20;;;;;;;13.04;49.33;100972.03;5134769;27;20062;-73
2023/04/11 17:15:12;;;;;;;7.22;1.88;;;;;;;13.00;48.34;100970.03;5113179;27;20364;-73